sensor_id;sensor_type;location;lat;lon;timestamp;temperature;humidity
46309;DHT22;32037;50.820;6.494;2022-08-19T00:01:56;24.30;54.30
46309;DHT22;32037;50.820;6.494;2022-08-19T00:04:29;24.30;54.30
46309;DHT22;32037;50.820;6.494;2022-08-19T00:06:59;24.30;54.30
46309;DHT22;32037;50.820;6.494;2022-08-19T00:09:28;24.30;54.30
46309;DHT22;32037;50.820;6.494;2022-08-19T00:11:58;24.30;54.30
46309;DHT22;32037;50.820;6.494;2022-08-19T00:14:28;24.30;54.20
46309;DHT22;32037;50.820;6.494;2022-08-19T00:16:59;24.30;54.20
46309;DHT22;32037;50.820;6.494;2022-08-19T00:19:28;24.30;54.20
46309;DHT22;32037;50.820;6.494;2022-08-19T00:21:57;24.30;54.20
46309;DHT22;32037;50.820;6.494;2022-08-19T00:24:26;24.30;54.20
46309;DHT22;32037;50.820;6.494;2022-08-19T00:26:56;24.30;54.20
46309;DHT22;32037;50.820;6.494;2022-08-19T00:29:44;24.30;54.20
46309;DHT22;32037;50.820;6.494;2022-08-19T00:32:18;24.30;54.20
46309;DHT22;32037;50.820;6.494;2022-08-19T00:34:47;24.30;54.30
46309;DHT22;32037;50.820;6.494;2022-08-19T00:37:16;24.30;54.20
46309;DHT22;32037;50.820;6.494;2022-08-19T00:39:46;24.30;54.20
46309;DHT22;32037;50.820;6.494;2022-08-19T00:42:15;24.30;54.30
46309;DHT22;32037;50.820;6.494;2022-08-19T00:44:44;24.30;54.30
46309;DHT22;32037;50.820;6.494;2022-08-19T00:47:12;24.30;54.30
46309;DHT22;32037;50.820;6.494;2022-08-19T00:49:45;24.30;54.30
46309;DHT22;32037;50.820;6.494;2022-08-19T00:52:21;24.20;54.10
46309;DHT22;32037;50.820;6.494;2022-08-19T00:54:52;24.30;54.20
46309;DHT22;32037;50.820;6.494;2022-08-19T00:57:27;24.30;54.20
46309;DHT22;32037;50.820;6.494;2022-08-19T00:59:57;24.30;54.20
46309;DHT22;32037;50.820;6.494;2022-08-19T01:02:30;24.20;54.00
46309;DHT22;32037;50.820;6.494;2022-08-19T01:05:01;24.20;54.10
46309;DHT22;32037;50.820;6.494;2022-08-19T01:07:30;24.20;54.10
46309;DHT22;32037;50.820;6.494;2022-08-19T01:10:07;24.20;54.00
46309;DHT22;32037;50.820;6.494;2022-08-19T01:12:37;24.20;54.10
46309;DHT22;32037;50.820;6.494;2022-08-19T01:15:09;24.20;54.00
46309;DHT22;32037;50.820;6.494;2022-08-19T01:17:39;24.20;54.10
46309;DHT22;32037;50.820;6.494;2022-08-19T01:20:11;24.20;54.00
46309;DHT22;32037;50.820;6.494;2022-08-19T01:22:44;24.20;54.30
46309;DHT22;32037;50.820;6.494;2022-08-19T01:25:13;24.20;54.10
46309;DHT22;32037;50.820;6.494;2022-08-19T01:27:44;24.20;54.10
46309;DHT22;32037;50.820;6.494;2022-08-19T01:30:17;24.20;54.00
46309;DHT22;32037;50.820;6.494;2022-08-19T01:32:46;24.20;54.00
46309;DHT22;32037;50.820;6.494;2022-08-19T01:35:16;24.20;54.00
46309;DHT22;32037;50.820;6.494;2022-08-19T01:37:48;24.20;54.10
46309;DHT22;32037;50.820;6.494;2022-08-19T01:40:19;24.20;54.10
46309;DHT22;32037;50.820;6.494;2022-08-19T01:42:48;24.20;54.10
46309;DHT22;32037;50.820;6.494;2022-08-19T01:45:17;24.20;54.00
46309;DHT22;32037;50.820;6.494;2022-08-19T01:47:46;24.20;54.00
46309;DHT22;32037;50.820;6.494;2022-08-19T01:50:28;24.20;54.00
46309;DHT22;32037;50.820;6.494;2022-08-19T01:52:59;24.20;54.00
46309;DHT22;32037;50.820;6.494;2022-08-19T01:55:34;24.20;54.00
46309;DHT22;32037;50.820;6.494;2022-08-19T01:58:08;24.20;54.00
46309;DHT22;32037;50.820;6.494;2022-08-19T02:00:38;24.20;53.90
46309;DHT22;32037;50.820;6.494;2022-08-19T02:03:06;24.20;54.00
46309;DHT22;32037;50.820;6.494;2022-08-19T02:05:38;24.20;54.00
46309;DHT22;32037;50.820;6.494;2022-08-19T02:08:08;24.20;54.00
46309;DHT22;32037;50.820;6.494;2022-08-19T02:10:39;24.20;54.00
46309;DHT22;32037;50.820;6.494;2022-08-19T02:13:09;24.20;54.00
46309;DHT22;32037;50.820;6.494;2022-08-19T02:15:38;24.10;54.00
46309;DHT22;32037;50.820;6.494;2022-08-19T02:18:07;24.10;53.90
46309;DHT22;32037;50.820;6.494;2022-08-19T02:20:36;24.10;53.80
46309;DHT22;32037;50.820;6.494;2022-08-19T02:23:06;24.20;54.00
46309;DHT22;32037;50.820;6.494;2022-08-19T02:25:44;24.10;53.90
46309;DHT22;32037;50.820;6.494;2022-08-19T02:28:13;24.10;53.90
46309;DHT22;32037;50.820;6.494;2022-08-19T02:30:46;24.10;53.80
46309;DHT22;32037;50.820;6.494;2022-08-19T02:33:16;24.10;53.90
46309;DHT22;32037;50.820;6.494;2022-08-19T02:35:45;24.20;53.90
46309;DHT22;32037;50.820;6.494;2022-08-19T02:38:15;24.10;53.80
46309;DHT22;32037;50.820;6.494;2022-08-19T02:40:58;24.10;53.80
46309;DHT22;32037;50.820;6.494;2022-08-19T02:43:29;24.10;53.80
46309;DHT22;32037;50.820;6.494;2022-08-19T02:46:01;24.10;53.90
46309;DHT22;32037;50.820;6.494;2022-08-19T02:48:29;24.10;53.80
46309;DHT22;32037;50.820;6.494;2022-08-19T02:50:59;24.10;53.90
46309;DHT22;32037;50.820;6.494;2022-08-19T02:53:28;24.10;53.80
46309;DHT22;32037;50.820;6.494;2022-08-19T02:55:58;24.10;53.90
46309;DHT22;32037;50.820;6.494;2022-08-19T02:58:26;24.10;53.80
46309;DHT22;32037;50.820;6.494;2022-08-19T03:00:56;24.10;53.80
46309;DHT22;32037;50.820;6.494;2022-08-19T03:03:25;24.10;53.90
46309;DHT22;32037;50.820;6.494;2022-08-19T03:06:04;24.10;53.80
46309;DHT22;32037;50.820;6.494;2022-08-19T03:08:32;24.10;53.80
46309;DHT22;32037;50.820;6.494;2022-08-19T03:11:03;24.10;53.80
46309;DHT22;32037;50.820;6.494;2022-08-19T03:13:32;24.10;53.90
46309;DHT22;32037;50.820;6.494;2022-08-19T03:16:04;24.10;53.80
46309;DHT22;32037;50.820;6.494;2022-08-19T03:18:33;24.10;53.80
46309;DHT22;32037;50.820;6.494;2022-08-19T03:21:01;24.10;53.70
46309;DHT22;32037;50.820;6.494;2022-08-19T03:23:29;24.10;53.80
46309;DHT22;32037;50.820;6.494;2022-08-19T03:25:58;24.10;53.80
46309;DHT22;32037;50.820;6.494;2022-08-19T03:28:44;24.00;53.60
46309;DHT22;32037;50.820;6.494;2022-08-19T03:31:26;24.10;53.80
46309;DHT22;32037;50.820;6.494;2022-08-19T03:34:18;24.10;53.80
46309;DHT22;32037;50.820;6.494;2022-08-19T03:36:47;24.00;53.60
46309;DHT22;32037;50.820;6.494;2022-08-19T03:39:16;24.00;53.70
46309;DHT22;32037;50.820;6.494;2022-08-19T03:41:46;24.00;53.70
46309;DHT22;32037;50.820;6.494;2022-08-19T03:44:37;24.00;53.80
46309;DHT22;32037;50.820;6.494;2022-08-19T03:47:06;24.00;53.90
46309;DHT22;32037;50.820;6.494;2022-08-19T03:49:34;24.00;53.80
46309;DHT22;32037;50.820;6.494;2022-08-19T03:52:04;24.00;53.80
46309;DHT22;32037;50.820;6.494;2022-08-19T03:54:35;24.00;53.80
46309;DHT22;32037;50.820;6.494;2022-08-19T03:57:05;24.00;53.80
46309;DHT22;32037;50.820;6.494;2022-08-19T03:59:35;24.00;53.80
46309;DHT22;32037;50.820;6.494;2022-08-19T04:02:09;24.00;53.90
46309;DHT22;32037;50.820;6.494;2022-08-19T04:04:39;24.00;53.90
46309;DHT22;32037;50.820;6.494;2022-08-19T04:07:09;24.00;53.90
46309;DHT22;32037;50.820;6.494;2022-08-19T04:09:38;24.00;53.90
46309;DHT22;32037;50.820;6.494;2022-08-19T04:12:07;24.00;54.00
46309;DHT22;32037;50.820;6.494;2022-08-19T04:14:36;23.90;53.90
46309;DHT22;32037;50.820;6.494;2022-08-19T04:17:06;23.90;53.90
46309;DHT22;32037;50.820;6.494;2022-08-19T04:19:35;23.90;53.80
46309;DHT22;32037;50.820;6.494;2022-08-19T04:22:04;23.90;53.90
46309;DHT22;32037;50.820;6.494;2022-08-19T04:24:34;23.90;53.90
46309;DHT22;32037;50.820;6.494;2022-08-19T04:27:04;23.90;53.70
46309;DHT22;32037;50.820;6.494;2022-08-19T04:29:33;23.90;53.70
46309;DHT22;32037;50.820;6.494;2022-08-19T04:32:02;23.90;53.70
46309;DHT22;32037;50.820;6.494;2022-08-19T04:34:37;23.90;53.70
46309;DHT22;32037;50.820;6.494;2022-08-19T04:37:26;23.90;53.70
46309;DHT22;32037;50.820;6.494;2022-08-19T04:40:04;23.90;53.70
46309;DHT22;32037;50.820;6.494;2022-08-19T04:42:50;23.90;53.70
46309;DHT22;32037;50.820;6.494;2022-08-19T04:45:19;23.90;53.70
46309;DHT22;32037;50.820;6.494;2022-08-19T04:47:49;23.90;53.80
46309;DHT22;32037;50.820;6.494;2022-08-19T04:50:26;23.90;53.80
46309;DHT22;32037;50.820;6.494;2022-08-19T04:52:55;23.90;53.80
46309;DHT22;32037;50.820;6.494;2022-08-19T04:55:24;23.90;53.80
46309;DHT22;32037;50.820;6.494;2022-08-19T04:57:53;23.90;53.80
46309;DHT22;32037;50.820;6.494;2022-08-19T05:00:22;23.90;53.80
46309;DHT22;32037;50.820;6.494;2022-08-19T05:02:51;23.90;53.80
46309;DHT22;32037;50.820;6.494;2022-08-19T05:05:20;23.80;53.70
46309;DHT22;32037;50.820;6.494;2022-08-19T05:07:49;23.90;55.10
46309;DHT22;32037;50.820;6.494;2022-08-19T05:10:18;23.80;53.80
46309;DHT22;32037;50.820;6.494;2022-08-19T05:12:47;23.90;53.90
46309;DHT22;32037;50.820;6.494;2022-08-19T05:15:16;23.90;54.00
46309;DHT22;32037;50.820;6.494;2022-08-19T05:17:45;23.80;53.80
46309;DHT22;32037;50.820;6.494;2022-08-19T05:20:28;23.80;53.90
46309;DHT22;32037;50.820;6.494;2022-08-19T05:23:15;23.80;54.00
46309;DHT22;32037;50.820;6.494;2022-08-19T05:25:49;23.80;54.00
46309;DHT22;32037;50.820;6.494;2022-08-19T05:28:18;23.80;54.20
46309;DHT22;32037;50.820;6.494;2022-08-19T05:30:48;23.80;54.30
46309;DHT22;32037;50.820;6.494;2022-08-19T05:33:18;23.80;54.20
46309;DHT22;32037;50.820;6.494;2022-08-19T05:35:46;23.80;54.20
46309;DHT22;32037;50.820;6.494;2022-08-19T05:38:18;23.80;54.20
46309;DHT22;32037;50.820;6.494;2022-08-19T05:40:47;23.80;54.30
46309;DHT22;32037;50.820;6.494;2022-08-19T05:43:16;23.80;54.30
46309;DHT22;32037;50.820;6.494;2022-08-19T05:45:44;23.80;54.20
46309;DHT22;32037;50.820;6.494;2022-08-19T05:48:14;23.70;54.20
46309;DHT22;32037;50.820;6.494;2022-08-19T05:50:47;23.80;54.30
46309;DHT22;32037;50.820;6.494;2022-08-19T05:53:18;23.80;54.30
46309;DHT22;32037;50.820;6.494;2022-08-19T05:55:47;23.80;54.40
46309;DHT22;32037;50.820;6.494;2022-08-19T05:58:15;23.70;54.30
46309;DHT22;32037;50.820;6.494;2022-08-19T06:00:49;23.70;54.30
46309;DHT22;32037;50.820;6.494;2022-08-19T06:03:17;23.70;54.30
46309;DHT22;32037;50.820;6.494;2022-08-19T06:05:46;23.80;54.40
46309;DHT22;32037;50.820;6.494;2022-08-19T06:08:20;23.80;54.40
46309;DHT22;32037;50.820;6.494;2022-08-19T06:11:13;23.70;54.50
46309;DHT22;32037;50.820;6.494;2022-08-19T06:13:42;23.70;54.30
46309;DHT22;32037;50.820;6.494;2022-08-19T06:16:12;23.70;54.40
46309;DHT22;32037;50.820;6.494;2022-08-19T06:18:40;23.70;54.50
46309;DHT22;32037;50.820;6.494;2022-08-19T06:21:11;23.70;54.50
46309;DHT22;32037;50.820;6.494;2022-08-19T06:23:41;23.70;54.50
46309;DHT22;32037;50.820;6.494;2022-08-19T06:26:12;23.70;54.80
46309;DHT22;32037;50.820;6.494;2022-08-19T06:28:41;23.70;54.60
46309;DHT22;32037;50.820;6.494;2022-08-19T06:31:14;23.70;54.80
46309;DHT22;32037;50.820;6.494;2022-08-19T06:33:44;23.70;54.70
46309;DHT22;32037;50.820;6.494;2022-08-19T06:36:18;23.70;54.70
46309;DHT22;32037;50.820;6.494;2022-08-19T06:38:52;23.60;54.60
46309;DHT22;32037;50.820;6.494;2022-08-19T06:41:21;23.70;54.70
46309;DHT22;32037;50.820;6.494;2022-08-19T06:43:49;23.60;54.60
46309;DHT22;32037;50.820;6.494;2022-08-19T06:46:22;23.60;54.70
46309;DHT22;32037;50.820;6.494;2022-08-19T06:48:54;23.70;54.60
46309;DHT22;32037;50.820;6.494;2022-08-19T06:51:23;23.60;54.50
46309;DHT22;32037;50.820;6.494;2022-08-19T06:53:57;23.70;54.80
46309;DHT22;32037;50.820;6.494;2022-08-19T06:56:28;23.70;54.80
46309;DHT22;32037;50.820;6.494;2022-08-19T06:59:01;23.60;54.70
46309;DHT22;32037;50.820;6.494;2022-08-19T07:01:34;23.70;56.00
46309;DHT22;32037;50.820;6.494;2022-08-19T07:04:05;23.60;54.70
46309;DHT22;32037;50.820;6.494;2022-08-19T07:06:38;23.60;55.10
46309;DHT22;32037;50.820;6.494;2022-08-19T07:09:14;23.70;55.10
46309;DHT22;32037;50.820;6.494;2022-08-19T07:11:46;23.60;54.90
46309;DHT22;32037;50.820;6.494;2022-08-19T07:14:17;23.70;54.60
46309;DHT22;32037;50.820;6.494;2022-08-19T07:16:47;23.70;54.60
46309;DHT22;32037;50.820;6.494;2022-08-19T07:19:18;23.70;54.70
46309;DHT22;32037;50.820;6.494;2022-08-19T07:21:48;23.70;54.90
46309;DHT22;32037;50.820;6.494;2022-08-19T07:24:20;23.80;55.30
46309;DHT22;32037;50.820;6.494;2022-08-19T07:26:52;23.70;55.60
46309;DHT22;32037;50.820;6.494;2022-08-19T07:29:22;23.70;55.80
46309;DHT22;32037;50.820;6.494;2022-08-19T07:31:54;23.70;55.80
46309;DHT22;32037;50.820;6.494;2022-08-19T07:34:28;23.70;55.80
46309;DHT22;32037;50.820;6.494;2022-08-19T07:36:57;23.70;55.60
46309;DHT22;32037;50.820;6.494;2022-08-19T07:39:29;23.70;55.90
46309;DHT22;32037;50.820;6.494;2022-08-19T07:42:01;23.80;56.00
46309;DHT22;32037;50.820;6.494;2022-08-19T07:44:31;23.80;55.70
46309;DHT22;32037;50.820;6.494;2022-08-19T07:47:02;23.90;55.90
46309;DHT22;32037;50.820;6.494;2022-08-19T07:49:31;23.90;55.70
46309;DHT22;32037;50.820;6.494;2022-08-19T07:52:02;24.00;55.50
46309;DHT22;32037;50.820;6.494;2022-08-19T07:54:34;24.00;55.20
46309;DHT22;32037;50.820;6.494;2022-08-19T07:57:05;24.00;55.10
46309;DHT22;32037;50.820;6.494;2022-08-19T07:59:34;24.10;54.70
46309;DHT22;32037;50.820;6.494;2022-08-19T08:02:03;24.10;54.40
46309;DHT22;32037;50.820;6.494;2022-08-19T08:04:32;24.20;54.10
46309;DHT22;32037;50.820;6.494;2022-08-19T08:07:20;24.20;53.70
46309;DHT22;32037;50.820;6.494;2022-08-19T08:10:13;24.30;53.70
46309;DHT22;32037;50.820;6.494;2022-08-19T08:12:47;24.30;54.50
46309;DHT22;32037;50.820;6.494;2022-08-19T08:15:37;24.30;53.30
46309;DHT22;32037;50.820;6.494;2022-08-19T08:18:10;24.30;53.20
46309;DHT22;32037;50.820;6.494;2022-08-19T08:20:40;24.30;52.90
46309;DHT22;32037;50.820;6.494;2022-08-19T08:23:09;24.30;54.40
46309;DHT22;32037;50.820;6.494;2022-08-19T08:25:55;24.20;53.20
46309;DHT22;32037;50.820;6.494;2022-08-19T08:28:25;24.20;53.20
46309;DHT22;32037;50.820;6.494;2022-08-19T08:30:56;24.20;53.20
46309;DHT22;32037;50.820;6.494;2022-08-19T08:33:27;24.20;53.20
46309;DHT22;32037;50.820;6.494;2022-08-19T08:36:02;24.10;53.40
46309;DHT22;32037;50.820;6.494;2022-08-19T08:38:33;24.10;54.80
46309;DHT22;32037;50.820;6.494;2022-08-19T08:41:12;24.10;53.50
46309;DHT22;32037;50.820;6.494;2022-08-19T08:43:48;24.10;53.70
46309;DHT22;32037;50.820;6.494;2022-08-19T08:46:22;24.10;53.70
46309;DHT22;32037;50.820;6.494;2022-08-19T08:49:06;24.10;54.10
46309;DHT22;32037;50.820;6.494;2022-08-19T08:51:41;24.00;54.40
46309;DHT22;32037;50.820;6.494;2022-08-19T08:54:17;23.90;54.50
46309;DHT22;32037;50.820;6.494;2022-08-19T08:56:49;23.90;54.60
46309;DHT22;32037;50.820;6.494;2022-08-19T08:59:23;23.80;55.80
46309;DHT22;32037;50.820;6.494;2022-08-19T09:01:54;23.80;54.80
46309;DHT22;32037;50.820;6.494;2022-08-19T09:04:23;23.80;54.90
46309;DHT22;32037;50.820;6.494;2022-08-19T09:06:55;23.70;55.00
46309;DHT22;32037;50.820;6.494;2022-08-19T09:09:32;23.70;55.10
46309;DHT22;32037;50.820;6.494;2022-08-19T09:12:10;23.70;55.20
46309;DHT22;32037;50.820;6.494;2022-08-19T09:14:47;23.60;55.30
46309;DHT22;32037;50.820;6.494;2022-08-19T09:17:20;23.60;55.40
46309;DHT22;32037;50.820;6.494;2022-08-19T09:20:02;23.60;55.50
46309;DHT22;32037;50.820;6.494;2022-08-19T09:22:35;23.60;55.70
46309;DHT22;32037;50.820;6.494;2022-08-19T09:25:06;23.60;55.80
46309;DHT22;32037;50.820;6.494;2022-08-19T09:27:38;23.60;55.80
46309;DHT22;32037;50.820;6.494;2022-08-19T09:30:22;23.60;55.90
46309;DHT22;32037;50.820;6.494;2022-08-19T09:32:52;23.60;55.90
46309;DHT22;32037;50.820;6.494;2022-08-19T09:35:27;23.60;56.20
46309;DHT22;32037;50.820;6.494;2022-08-19T09:37:59;23.60;56.20
46309;DHT22;32037;50.820;6.494;2022-08-19T09:40:30;23.60;56.20
46309;DHT22;32037;50.820;6.494;2022-08-19T09:43:06;23.60;56.10
46309;DHT22;32037;50.820;6.494;2022-08-19T09:45:39;23.60;56.40
46309;DHT22;32037;50.820;6.494;2022-08-19T09:48:08;23.60;56.40
46309;DHT22;32037;50.820;6.494;2022-08-19T09:50:38;23.60;56.30
46309;DHT22;32037;50.820;6.494;2022-08-19T09:53:18;23.60;56.20
46309;DHT22;32037;50.820;6.494;2022-08-19T09:55:55;23.60;56.20
46309;DHT22;32037;50.820;6.494;2022-08-19T09:58:25;23.60;55.90
46309;DHT22;32037;50.820;6.494;2022-08-19T10:00:55;23.60;55.90
46309;DHT22;32037;50.820;6.494;2022-08-19T10:03:25;23.60;56.00
46309;DHT22;32037;50.820;6.494;2022-08-19T10:05:58;23.60;56.00
46309;DHT22;32037;50.820;6.494;2022-08-19T10:08:29;23.60;55.90
46309;DHT22;32037;50.820;6.494;2022-08-19T10:10:59;23.60;55.90
46309;DHT22;32037;50.820;6.494;2022-08-19T10:13:50;23.60;56.00
46309;DHT22;32037;50.820;6.494;2022-08-19T10:16:21;23.60;55.90
46309;DHT22;32037;50.820;6.494;2022-08-19T10:18:56;23.60;56.00
46309;DHT22;32037;50.820;6.494;2022-08-19T10:21:27;23.60;56.10
46309;DHT22;32037;50.820;6.494;2022-08-19T10:24:00;23.60;55.90
46309;DHT22;32037;50.820;6.494;2022-08-19T10:26:35;23.60;56.20
46309;DHT22;32037;50.820;6.494;2022-08-19T10:29:06;23.60;56.00
46309;DHT22;32037;50.820;6.494;2022-08-19T10:31:35;23.60;56.00
46309;DHT22;32037;50.820;6.494;2022-08-19T10:34:24;23.60;56.00
46309;DHT22;32037;50.820;6.494;2022-08-19T10:36:55;23.60;55.90
46309;DHT22;32037;50.820;6.494;2022-08-19T10:39:28;23.60;55.90
46309;DHT22;32037;50.820;6.494;2022-08-19T10:42:03;23.60;55.90
46309;DHT22;32037;50.820;6.494;2022-08-19T10:44:34;23.60;56.00
46309;DHT22;32037;50.820;6.494;2022-08-19T10:47:03;23.60;55.90
46309;DHT22;32037;50.820;6.494;2022-08-19T10:49:52;23.60;55.90
46309;DHT22;32037;50.820;6.494;2022-08-19T10:52:39;23.60;55.90
46309;DHT22;32037;50.820;6.494;2022-08-19T10:55:18;23.60;55.90
46309;DHT22;32037;50.820;6.494;2022-08-19T10:58:10;23.60;55.90
46309;DHT22;32037;50.820;6.494;2022-08-19T11:00:41;23.60;55.90
46309;DHT22;32037;50.820;6.494;2022-08-19T11:03:10;23.60;55.90
46309;DHT22;32037;50.820;6.494;2022-08-19T11:05:39;23.60;55.90
46309;DHT22;32037;50.820;6.494;2022-08-19T11:08:08;23.60;55.90
46309;DHT22;32037;50.820;6.494;2022-08-19T11:10:51;23.60;55.90
46309;DHT22;32037;50.820;6.494;2022-08-19T11:13:26;23.60;55.90
46309;DHT22;32037;50.820;6.494;2022-08-19T11:16:03;23.60;55.90
46309;DHT22;32037;50.820;6.494;2022-08-19T11:18:35;23.60;55.80
46309;DHT22;32037;50.820;6.494;2022-08-19T11:21:13;23.60;55.70
46309;DHT22;32037;50.820;6.494;2022-08-19T11:23:45;23.60;55.70
46309;DHT22;32037;50.820;6.494;2022-08-19T11:26:14;23.60;55.70
46309;DHT22;32037;50.820;6.494;2022-08-19T11:28:43;23.60;55.60
46309;DHT22;32037;50.820;6.494;2022-08-19T11:31:15;23.70;55.50
46309;DHT22;32037;50.820;6.494;2022-08-19T11:33:45;23.70;55.40
46309;DHT22;32037;50.820;6.494;2022-08-19T11:36:15;23.80;55.40
46309;DHT22;32037;50.820;6.494;2022-08-19T11:38:45;23.80;55.50
46309;DHT22;32037;50.820;6.494;2022-08-19T11:41:17;23.80;55.30
46309;DHT22;32037;50.820;6.494;2022-08-19T11:43:46;23.80;55.30
46309;DHT22;32037;50.820;6.494;2022-08-19T11:46:17;23.80;55.30
46309;DHT22;32037;50.820;6.494;2022-08-19T11:48:47;23.80;55.40
46309;DHT22;32037;50.820;6.494;2022-08-19T11:51:18;23.80;55.30
46309;DHT22;32037;50.820;6.494;2022-08-19T11:53:50;23.80;55.40
46309;DHT22;32037;50.820;6.494;2022-08-19T11:56:19;23.70;55.20
46309;DHT22;32037;50.820;6.494;2022-08-19T11:58:49;23.70;55.30
46309;DHT22;32037;50.820;6.494;2022-08-19T12:01:21;23.70;55.20
46309;DHT22;32037;50.820;6.494;2022-08-19T12:03:52;23.70;55.10
46309;DHT22;32037;50.820;6.494;2022-08-19T12:06:23;23.70;55.10
46309;DHT22;32037;50.820;6.494;2022-08-19T12:08:53;23.70;55.10
46309;DHT22;32037;50.820;6.494;2022-08-19T12:11:22;23.70;55.10
46309;DHT22;32037;50.820;6.494;2022-08-19T12:13:52;23.70;55.10
46309;DHT22;32037;50.820;6.494;2022-08-19T12:16:24;23.70;55.00
46309;DHT22;32037;50.820;6.494;2022-08-19T12:18:55;23.70;55.00
46309;DHT22;32037;50.820;6.494;2022-08-19T12:21:26;23.70;54.90
46309;DHT22;32037;50.820;6.494;2022-08-19T12:23:57;23.80;55.00
46309;DHT22;32037;50.820;6.494;2022-08-19T12:26:28;23.70;54.80
46309;DHT22;32037;50.820;6.494;2022-08-19T12:28:59;23.70;54.80
46309;DHT22;32037;50.820;6.494;2022-08-19T12:31:30;23.70;54.80
46309;DHT22;32037;50.820;6.494;2022-08-19T12:33:59;23.70;54.80
46309;DHT22;32037;50.820;6.494;2022-08-19T12:36:29;23.70;54.80
46309;DHT22;32037;50.820;6.494;2022-08-19T12:38:59;23.70;55.10
46309;DHT22;32037;50.820;6.494;2022-08-19T12:41:27;23.80;54.80
46309;DHT22;32037;50.820;6.494;2022-08-19T12:43:56;23.80;54.80
46309;DHT22;32037;50.820;6.494;2022-08-19T12:46:27;23.80;54.80
46309;DHT22;32037;50.820;6.494;2022-08-19T12:48:58;23.80;54.60
46309;DHT22;32037;50.820;6.494;2022-08-19T12:51:32;23.80;54.70
46309;DHT22;32037;50.820;6.494;2022-08-19T12:54:02;23.80;54.80
46309;DHT22;32037;50.820;6.494;2022-08-19T12:56:32;23.80;54.60
46309;DHT22;32037;50.820;6.494;2022-08-19T12:59:02;23.80;54.60
46309;DHT22;32037;50.820;6.494;2022-08-19T13:01:31;23.80;54.60
46309;DHT22;32037;50.820;6.494;2022-08-19T13:04:00;23.80;54.50
46309;DHT22;32037;50.820;6.494;2022-08-19T13:06:28;23.80;54.50
46309;DHT22;32037;50.820;6.494;2022-08-19T13:08:57;23.80;54.50
46309;DHT22;32037;50.820;6.494;2022-08-19T13:11:25;23.80;54.40
46309;DHT22;32037;50.820;6.494;2022-08-19T13:14:00;23.80;54.70
46309;DHT22;32037;50.820;6.494;2022-08-19T13:16:28;23.90;54.50
46309;DHT22;32037;50.820;6.494;2022-08-19T13:18:57;23.90;54.50
46309;DHT22;32037;50.820;6.494;2022-08-19T13:21:27;23.90;54.40
46309;DHT22;32037;50.820;6.494;2022-08-19T13:23:57;23.90;54.30
46309;DHT22;32037;50.820;6.494;2022-08-19T13:26:25;23.90;54.30
46309;DHT22;32037;50.820;6.494;2022-08-19T13:28:53;23.90;54.30
46309;DHT22;32037;50.820;6.494;2022-08-19T13:31:41;23.90;54.30
46309;DHT22;32037;50.820;6.494;2022-08-19T13:34:29;23.90;54.30
46309;DHT22;32037;50.820;6.494;2022-08-19T13:37:00;23.90;54.20
46309;DHT22;32037;50.820;6.494;2022-08-19T13:39:35;23.90;54.00
46309;DHT22;32037;50.820;6.494;2022-08-19T13:42:04;23.90;54.20
46309;DHT22;32037;50.820;6.494;2022-08-19T13:44:33;23.90;54.00
46309;DHT22;32037;50.820;6.494;2022-08-19T13:47:05;23.90;54.10
46309;DHT22;32037;50.820;6.494;2022-08-19T13:49:35;23.90;54.00
46309;DHT22;32037;50.820;6.494;2022-08-19T13:52:05;23.90;53.80
46309;DHT22;32037;50.820;6.494;2022-08-19T13:54:33;23.90;53.80
46309;DHT22;32037;50.820;6.494;2022-08-19T13:57:02;23.90;53.70
46309;DHT22;32037;50.820;6.494;2022-08-19T13:59:30;23.90;53.90
46309;DHT22;32037;50.820;6.494;2022-08-19T14:02:00;23.90;53.80
46309;DHT22;32037;50.820;6.494;2022-08-19T14:04:28;23.90;53.70
46309;DHT22;32037;50.820;6.494;2022-08-19T14:06:56;23.90;53.80
46309;DHT22;32037;50.820;6.494;2022-08-19T14:09:26;24.00;53.90
46309;DHT22;32037;50.820;6.494;2022-08-19T14:11:54;24.00;53.80
46309;DHT22;32037;50.820;6.494;2022-08-19T14:14:25;24.00;54.90
46309;DHT22;32037;50.820;6.494;2022-08-19T14:16:53;24.00;53.90
46309;DHT22;32037;50.820;6.494;2022-08-19T14:19:21;24.00;53.70
46309;DHT22;32037;50.820;6.494;2022-08-19T14:21:55;24.00;53.60
46309;DHT22;32037;50.820;6.494;2022-08-19T14:24:26;24.10;53.80
46309;DHT22;32037;50.820;6.494;2022-08-19T14:26:54;24.10;53.70
46309;DHT22;32037;50.820;6.494;2022-08-19T14:29:23;24.10;53.40
46309;DHT22;32037;50.820;6.494;2022-08-19T14:31:51;24.10;53.20
46309;DHT22;32037;50.820;6.494;2022-08-19T14:34:19;24.10;53.20
46309;DHT22;32037;50.820;6.494;2022-08-19T14:36:49;24.10;53.20
46309;DHT22;32037;50.820;6.494;2022-08-19T14:39:17;24.10;53.20
46309;DHT22;32037;50.820;6.494;2022-08-19T14:41:47;24.10;53.20
46309;DHT22;32037;50.820;6.494;2022-08-19T14:44:15;24.10;53.20
46309;DHT22;32037;50.820;6.494;2022-08-19T14:46:44;24.10;53.40
46309;DHT22;32037;50.820;6.494;2022-08-19T14:49:15;24.10;53.30
46309;DHT22;32037;50.820;6.494;2022-08-19T14:51:45;24.10;53.40
46309;DHT22;32037;50.820;6.494;2022-08-19T14:54:13;24.10;53.50
46309;DHT22;32037;50.820;6.494;2022-08-19T14:56:42;24.20;53.70
46309;DHT22;32037;50.820;6.494;2022-08-19T14:59:11;24.10;53.60
46309;DHT22;32037;50.820;6.494;2022-08-19T15:01:40;24.10;53.60
46309;DHT22;32037;50.820;6.494;2022-08-19T15:04:08;24.10;53.70
46309;DHT22;32037;50.820;6.494;2022-08-19T15:06:37;24.10;53.60
46309;DHT22;32037;50.820;6.494;2022-08-19T15:09:06;24.10;53.60
46309;DHT22;32037;50.820;6.494;2022-08-19T15:11:35;24.10;53.60
46309;DHT22;32037;50.820;6.494;2022-08-19T15:14:04;24.20;53.70
46309;DHT22;32037;50.820;6.494;2022-08-19T15:16:35;24.20;53.70
46309;DHT22;32037;50.820;6.494;2022-08-19T15:19:05;24.20;53.70
46309;DHT22;32037;50.820;6.494;2022-08-19T15:21:34;24.20;53.70
46309;DHT22;32037;50.820;6.494;2022-08-19T15:24:03;24.20;53.70
46309;DHT22;32037;50.820;6.494;2022-08-19T15:26:33;24.20;53.70
46309;DHT22;32037;50.820;6.494;2022-08-19T15:29:02;24.20;53.70
46309;DHT22;32037;50.820;6.494;2022-08-19T15:31:31;24.20;53.70
46309;DHT22;32037;50.820;6.494;2022-08-19T15:34:06;24.20;53.70
46309;DHT22;32037;50.820;6.494;2022-08-19T15:36:36;24.20;53.80
46309;DHT22;32037;50.820;6.494;2022-08-19T15:39:04;24.20;53.70
46309;DHT22;32037;50.820;6.494;2022-08-19T15:41:33;24.20;53.70
46309;DHT22;32037;50.820;6.494;2022-08-19T15:44:07;24.20;53.80
46309;DHT22;32037;50.820;6.494;2022-08-19T15:46:38;24.30;53.90
46309;DHT22;32037;50.820;6.494;2022-08-19T15:49:08;24.20;54.00
46309;DHT22;32037;50.820;6.494;2022-08-19T15:51:39;24.30;54.00
46309;DHT22;32037;50.820;6.494;2022-08-19T15:54:10;24.30;54.20
46309;DHT22;32037;50.820;6.494;2022-08-19T15:56:39;24.30;54.30
46309;DHT22;32037;50.820;6.494;2022-08-19T15:59:29;24.30;54.20